Time;durP1;ratioP1;P1;durP2;ratioP2;P2;SDS_P1;SDS_P2;PMS_P1;PMS_P2;Temp;Humidity;BMP_temperature;BMP_pressure;BME280_temperature;BME280_humidity;BME280_pressure;Samples;Min_cycle;Max_cycle;Signal;HPM_P1;HPM_P2
2023/06/19 00:01:13;;;;;;;6.03;4.60;;;;;;;20.78;31.15;95111.97;5022998;28;20494;-63
2023/06/19 00:03:38;;;;;;;6.97;4.40;;;;;;;20.73;30.92;95113.53;5023637;28;20099;-63
2023/06/19 00:06:05;;;;;;;6.20;5.00;;;;;;;20.70;30.88;95115.97;5022585;28;20491;-63
2023/06/19 00:08:30;;;;;;;7.23;5.33;;;;;;;20.58;30.94;95108.78;5023205;28;20580;-63
2023/06/19 00:10:56;;;;;;;6.50;4.68;;;;;;;20.63;31.02;95099.91;5018288;28;20038;-63
2023/06/19 00:13:21;;;;;;;7.00;5.07;;;;;;;20.56;30.39;95102.78;5017988;28;20033;-63
2023/06/19 00:15:47;;;;;;;7.40;5.63;;;;;;;20.44;30.50;95107.53;5022239;28;20029;-63
2023/06/19 00:18:12;;;;;;;6.90;5.18;;;;;;;20.47;30.62;95105.13;5019471;28;20060;-63
2023/06/19 00:20:39;;;;;;;7.20;5.40;;;;;;;20.46;30.30;95102.69;5019083;28;20036;-63
2023/06/19 00:23:04;;;;;;;6.05;4.65;;;;;;;20.42;30.63;95102.38;5020027;28;20029;-63
2023/06/19 00:25:30;;;;;;;5.50;4.60;;;;;;;20.38;31.06;95108.53;5023495;28;20040;-63
2023/06/19 00:27:55;;;;;;;6.15;5.13;;;;;;;20.38;30.50;95101.25;5024138;28;20035;-63
2023/06/19 00:30:21;;;;;;;6.28;4.90;;;;;;;20.38;30.26;95101.25;5023503;28;20296;-63
2023/06/19 00:32:46;;;;;;;7.22;5.38;;;;;;;20.43;30.09;95103.22;5023197;28;20033;-63
2023/06/19 00:35:15;;;;;;;6.38;4.90;;;;;;;20.48;30.36;95108.66;5022459;28;20042;-63
2023/06/19 00:37:44;;;;;;;6.85;4.63;;;;;;;20.52;30.02;95106.25;5023797;28;20042;-63
2023/06/19 00:40:36;;;;;;;6.40;5.03;;;;;;;20.52;29.92;95107.09;5023535;28;20029;-63
2023/06/19 00:43:02;;;;;;;7.05;4.38;;;;;;;20.53;31.42;95107.91;5006111;28;20421;-63
2023/06/19 00:45:28;;;;;;;7.35;4.97;;;;;;;20.39;30.53;95105.59;5005051;28;20080;-63
2023/06/19 00:47:53;;;;;;;6.63;4.35;;;;;;;20.34;30.83;95103.66;5023642;28;20107;-63
2023/06/19 00:50:19;;;;;;;7.35;4.30;;;;;;;20.40;30.50;95103.72;5022056;28;20402;-63
2023/06/19 00:52:45;;;;;;;8.57;4.78;;;;;;;20.45;30.14;95110.00;5022892;28;20033;-63
2023/06/19 00:55:10;;;;;;;7.40;5.20;;;;;;;20.34;30.20;95113.66;5023068;28;20041;-63
2023/06/19 00:57:36;;;;;;;6.40;5.25;;;;;;;20.33;30.19;95109.31;5022953;28;20033;-63
2023/06/19 01:00:05;;;;;;;6.97;5.22;;;;;;;20.30;30.98;95113.34;5005261;28;20029;-63
2023/06/19 01:02:30;;;;;;;6.38;4.85;;;;;;;20.28;30.51;95109.25;5019408;28;20107;-63
2023/06/19 01:04:56;;;;;;;7.18;4.70;;;;;;;20.22;30.82;95109.19;5026594;23;20053;-89
2023/06/19 01:08:06;;;;;;;6.13;4.45;;;;;;;20.13;31.41;95115.31;4988483;28;20033;-89
2023/06/19 01:10:36;;;;;;;7.05;4.65;;;;;;;20.18;30.88;95115.34;4960257;28;20993;-90
2023/06/19 01:13:06;;;;;;;7.50;5.25;;;;;;;20.07;31.09;95111.72;4930262;28;20198;-89
2023/06/19 01:15:31;;;;;;;5.90;4.78;;;;;;;20.19;31.20;95111.59;4930265;28;20046;-90
2023/06/19 01:17:58;;;;;;;5.25;4.68;;;;;;;20.16;30.42;95117.50;4913672;28;20411;-89
2023/06/19 01:20:24;;;;;;;9.27;4.88;;;;;;;20.08;31.65;95110.66;4913393;28;20054;-89
2023/06/19 01:22:50;;;;;;;7.10;5.22;;;;;;;20.07;31.38;95111.72;4927747;28;20051;-90
2023/06/19 01:25:15;;;;;;;7.32;5.20;;;;;;;20.05;31.05;95101.16;4936613;28;20042;-89
2023/06/19 01:27:42;;;;;;;5.85;4.43;;;;;;;20.13;31.91;95110.72;4931121;28;20097;-90
2023/06/19 01:30:07;;;;;;;6.87;5.03;;;;;;;20.13;31.05;95105.31;4927275;28;20576;-89
2023/06/19 01:32:44;;;;;;;7.53;5.20;;;;;;;20.14;31.35;95106.13;4929635;28;20118;-90
2023/06/19 01:35:09;;;;;;;5.57;4.73;;;;;;;20.20;32.10;95111.31;4929593;28;20050;-91
2023/06/19 01:37:36;;;;;;;5.10;4.50;;;;;;;20.16;31.45;95101.28;4912667;28;20318;-89
2023/06/19 01:40:03;;;;;;;5.60;4.82;;;;;;;20.21;31.80;95106.75;4931640;28;20030;-89
2023/06/19 01:42:29;;;;;;;5.63;4.70;;;;;;;20.24;31.91;95108.94;4971756;28;20041;-89
2023/06/19 01:44:54;;;;;;;6.28;5.00;;;;;;;20.21;31.05;95106.75;4988158;28;20036;-89
2023/06/19 01:47:20;;;;;;;5.88;4.82;;;;;;;20.25;31.47;95112.47;4972133;28;20564;-90
2023/06/19 01:49:46;;;;;;;6.35;4.95;;;;;;;20.25;31.37;95118.69;4972092;28;20037;-89
2023/06/19 01:52:11;;;;;;;5.28;4.13;;;;;;;20.38;32.09;95128.28;4971669;28;20033;-89
2023/06/19 01:54:37;;;;;;;5.80;4.85;;;;;;;19.94;33.37;95127.22;4987876;28;20059;-90
2023/06/19 01:57:02;;;;;;;5.90;5.00;;;;;;;19.72;33.74;95133.38;4972557;28;20033;-89
2023/06/19 01:59:28;;;;;;;9.27;5.15;;;;;;;19.52;33.57;95135.81;4987474;28;20033;-89
2023/06/19 02:01:53;;;;;;;7.78;4.55;;;;;;;19.74;33.98;95145.84;4987514;28;20092;-90
2023/06/19 02:04:19;;;;;;;6.53;5.00;;;;;;;19.41;34.02;95138.34;4990293;28;20719;-90
2023/06/19 02:06:44;;;;;;;7.15;5.00;;;;;;;19.43;34.11;95138.09;4972004;28;20049;-89
2023/06/19 02:09:10;;;;;;;9.32;5.30;;;;;;;19.37;34.10;95131.00;4969712;28;20666;-89
2023/06/19 02:11:36;;;;;;;7.07;4.75;;;;;;;19.45;34.21;95127.88;4973805;28;20549;-89
2023/06/19 02:14:01;;;;;;;6.30;5.10;;;;;;;19.52;33.96;95133.94;4975869;28;20056;-89
2023/06/19 02:16:26;;;;;;;6.35;5.00;;;;;;;19.63;34.02;95134.06;4972244;28;20080;-90
2023/06/19 02:18:52;;;;;;;8.23;5.15;;;;;;;19.59;34.12;95139.16;4969507;28;20034;-90
2023/06/19 02:21:17;;;;;;;7.90;5.00;;;;;;;19.46;33.55;95134.91;4957232;28;20403;-90
2023/06/19 02:23:43;;;;;;;7.00;5.18;;;;;;;19.39;33.80;95131.56;4995426;28;20285;-90
2023/06/19 02:26:08;;;;;;;7.68;5.30;;;;;;;19.49;33.75;95139.00;5001780;28;20115;-90
2023/06/19 02:28:34;;;;;;;6.68;4.82;;;;;;;19.53;33.82;95138.25;4971873;28;20030;-89
2023/06/19 02:30:59;;;;;;;6.60;4.88;;;;;;;19.59;33.77;95136.44;4997340;28;20030;-90
2023/06/19 02:33:24;;;;;;;5.80;4.72;;;;;;;19.61;33.52;95141.59;4956600;28;20542;-90
2023/06/19 02:35:50;;;;;;;6.50;5.20;;;;;;;19.58;32.87;95138.31;5001736;28;20026;-89
2023/06/19 02:38:15;;;;;;;5.20;4.63;;;;;;;19.61;32.91;95134.31;4963181;28;20513;-90
2023/06/19 02:40:41;;;;;;;5.60;4.57;;;;;;;19.64;32.82;95135.72;4981593;28;20034;-90
2023/06/19 02:43:06;;;;;;;5.80;4.80;;;;;;;19.67;33.45;95141.44;4962171;28;20037;-91
2023/06/19 02:45:31;;;;;;;6.72;5.32;;;;;;;19.67;33.14;95144.13;4960295;28;20099;-90
2023/06/19 02:47:57;;;;;;;6.65;4.93;;;;;;;19.69;32.89;95139.28;4966466;28;20111;-90
2023/06/19 02:50:22;;;;;;;5.72;4.50;;;;;;;19.74;34.20;95141.25;4973592;28;20560;-90
2023/06/19 02:52:48;;;;;;;5.50;4.70;;;;;;;19.90;33.58;95150.38;4974456;28;20061;-90
2023/06/19 02:55:13;;;;;;;6.28;4.65;;;;;;;19.63;34.34;95155.66;4991945;28;20030;-90
2023/06/19 02:57:39;;;;;;;7.53;4.80;;;;;;;19.81;33.51;95158.09;4996721;28;20045;-90
2023/06/19 03:00:09;;;;;;;6.47;4.63;;;;;;;19.85;33.54;95161.09;4997048;28;20500;-90
2023/06/19 03:02:34;;;;;;;5.47;4.65;;;;;;;19.89;33.24;95162.25;4971448;28;20026;-89
2023/06/19 03:05:00;;;;;;;6.78;4.97;;;;;;;19.75;33.69;95164.47;5000384;28;20062;-90
2023/06/19 03:07:28;;;;;;;6.65;4.55;;;;;;;19.87;33.33;95161.69;4967153;28;20104;-90
2023/06/19 03:09:55;;;;;;;5.85;4.50;;;;;;;19.91;33.11;95159.28;4980719;28;20060;-90
2023/06/19 03:12:20;;;;;;;6.88;4.93;;;;;;;19.89;33.21;95169.53;4968524;28;20030;-89
2023/06/19 03:14:45;;;;;;;5.80;5.20;;;;;;;19.87;32.77;95167.06;5004767;28;20526;-90
2023/06/19 03:17:12;;;;;;;7.78;5.22;;;;;;;19.82;32.54;95165.13;4986595;28;20022;-90
2023/06/19 03:19:37;;;;;;;5.00;4.43;;;;;;;19.71;32.92;95176.84;4972263;28;20065;-91
2023/06/19 03:22:03;;;;;;;5.47;4.80;;;;;;;19.71;32.80;95179.53;4952339;28;20038;-91
2023/06/19 03:24:28;;;;;;;5.80;4.68;;;;;;;19.82;33.00;95184.03;4970073;28;20109;-90
2023/06/19 03:26:54;;;;;;;5.90;4.55;;;;;;;19.92;32.57;95185.25;4986931;28;20046;-90
2023/06/19 03:29:19;;;;;;;6.50;4.60;;;;;;;19.94;32.56;95185.81;4970726;28;20037;-89
2023/06/19 03:31:45;;;;;;;5.97;4.85;;;;;;;19.92;32.36;95182.53;4970929;28;20030;-89
2023/06/19 03:34:10;;;;;;;7.53;4.93;;;;;;;19.90;32.57;95181.97;4970685;28;20057;-90
2023/06/19 03:36:36;;;;;;;6.15;5.03;;;;;;;20.00;32.54;95192.13;5005317;28;20049;-90
2023/06/19 03:39:01;;;;;;;5.88;4.82;;;;;;;19.97;32.68;95190.75;4969551;28;20037;-89
2023/06/19 03:41:26;;;;;;;6.95;4.55;;;;;;;20.01;32.66;95191.88;4970594;28;20960;-90
2023/06/19 03:43:52;;;;;;;6.40;4.82;;;;;;;20.07;32.36;95195.47;4969308;28;20034;-90
2023/06/19 03:46:17;;;;;;;5.50;4.90;;;;;;;19.90;33.32;95192.78;4985094;28;20131;-89
2023/06/19 03:48:43;;;;;;;6.43;4.95;;;;;;;19.96;33.30;95195.31;4986035;28;20030;-90
2023/06/19 03:51:08;;;;;;;5.60;4.57;;;;;;;19.59;34.14;95202.03;4969970;28;20417;-90
2023/06/19 03:53:33;;;;;;;5.93;4.88;;;;;;;19.44;34.47;95201.78;4986192;28;20767;-90
2023/06/19 03:55:59;;;;;;;6.30;4.90;;;;;;;19.16;35.24;95207.00;4970559;28;20034;-89
2023/06/19 03:58:24;;;;;;;5.47;4.47;;;;;;;19.27;34.80;95209.88;4952239;28;20038;-89
2023/06/19 04:00:51;;;;;;;8.05;5.15;;;;;;;19.32;34.85;95204.59;4969456;28;20054;-89
2023/06/19 04:03:16;;;;;;;6.15;4.90;;;;;;;19.27;35.39;95213.41;4970144;28;20046;-90
2023/06/19 04:05:42;;;;;;;6.38;4.70;;;;;;;18.78;36.45;95220.06;4988528;28;20044;-90
2023/06/19 04:08:07;;;;;;;6.55;4.53;;;;;;;18.81;37.05;95222.31;4959056;28;20680;-91
2023/06/19 04:10:33;;;;;;;5.55;4.40;;;;;;;18.67;37.47;95218.25;4983219;28;20041;-90
2023/06/19 04:12:58;;;;;;;5.68;4.30;;;;;;;18.01;39.00;95225.47;4972234;28;20041;-89
2023/06/19 04:15:23;;;;;;;5.15;3.97;;;;;;;17.78;39.25;95223.59;4990193;28;20038;-90
2023/06/19 04:17:49;;;;;;;5.65;4.07;;;;;;;17.77;39.49;95224.63;4976956;28;20030;-89
2023/06/19 04:20:14;;;;;;;6.38;3.90;;;;;;;18.09;39.19;95220.78;4977662;28;20030;-89
2023/06/19 04:22:40;;;;;;;5.05;4.30;;;;;;;17.90;39.57;95227.13;4975275;28;20487;-90
2023/06/19 04:25:07;;;;;;;6.28;4.00;;;;;;;18.34;38.68;95223.22;4983959;28;20033;-89
2023/06/19 04:27:32;;;;;;;5.40;4.20;;;;;;;18.45;38.67;95229.63;4979799;28;20121;-90
2023/06/19 04:29:58;;;;;;;4.75;3.90;;;;;;;17.90;39.82;95234.38;4960400;28;20548;-89
2023/06/19 04:32:23;;;;;;;5.55;4.30;;;;;;;18.15;38.88;95239.53;4993692;28;20026;-90
2023/06/19 04:34:49;;;;;;;5.43;4.20;;;;;;;18.58;38.58;95243.91;4971361;28;20414;-89
2023/06/19 04:37:18;;;;;;;4.93;4.03;;;;;;;18.11;39.79;95251.00;5011892;28;20402;-89
2023/06/19 04:39:47;;;;;;;5.93;4.30;;;;;;;18.69;38.71;95253.84;4980860;28;20025;-90
2023/06/19 04:42:19;;;;;;;5.78;4.00;;;;;;;18.13;40.01;95254.28;4971633;28;20037;-89
2023/06/19 04:44:46;;;;;;;4.45;3.95;;;;;;;18.24;39.64;95264.22;4985572;28;20321;-89
2023/06/19 04:47:11;;;;;;;4.65;3.85;;;;;;;17.00;42.45;95260.13;4963004;28;20444;-88
2023/06/19 04:49:36;;;;;;;5.53;4.30;;;;;;;17.34;41.45;95265.06;4962318;28;20108;-90
2023/06/19 04:52:03;;;;;;;6.15;4.50;;;;;;;17.60;41.35;95256.78;4978286;28;20033;-89
2023/06/19 04:54:28;;;;;;;5.95;4.18;;;;;;;17.39;42.31;95270.59;4971640;28;20405;-89
2023/06/19 04:56:54;;;;;;;5.45;4.50;;;;;;;17.26;42.28;95276.16;4978022;28;20029;-90
2023/06/19 04:59:19;;;;;;;6.97;4.53;;;;;;;16.86;43.31;95278.31;4957207;28;20034;-89
2023/06/19 05:01:45;;;;;;;6.93;4.45;;;;;;;16.84;43.92;95282.28;4978836;28;20037;-90
2023/06/19 05:04:16;;;;;;;4.88;4.05;;;;;;;17.24;43.07;95276.38;4993199;28;20046;-90
2023/06/19 05:06:42;;;;;;;5.03;3.85;;;;;;;16.33;45.36;95282.41;4957757;28;20250;-90
2023/06/19 05:09:08;;;;;;;6.53;3.70;;;;;;;15.85;46.98;95274.81;5008975;28;20033;-88
2023/06/19 05:11:33;;;;;;;5.22;4.55;;;;;;;15.62;47.63;95270.06;4973812;28;20064;-89
2023/06/19 05:13:58;;;;;;;5.53;4.10;;;;;;;15.67;47.92;95264.84;4990289;28;20540;-89
2023/06/19 05:16:24;;;;;;;7.30;3.92;;;;;;;16.02;47.28;95266.22;4953458;28;20049;-89
2023/06/19 05:18:51;;;;;;;4.20;3.42;;;;;;;15.42;48.82;95246.88;4988205;28;20037;-89
2023/06/19 05:21:17;;;;;;;5.65;4.20;;;;;;;15.18;50.25;95256.50;4972297;28;20079;-89
2023/06/19 05:23:42;;;;;;;5.38;4.22;;;;;;;15.67;49.11;95256.00;4972194;28;20030;-89
2023/06/19 05:26:07;;;;;;;6.20;4.22;;;;;;;15.97;48.54;95250.75;4980106;28;20045;-89
2023/06/19 05:28:33;;;;;;;4.90;4.07;;;;;;;15.00;50.48;95265.28;4992303;28;20050;-90
2023/06/19 05:30:58;;;;;;;8.75;3.85;;;;;;;16.20;48.19;95251.97;4967627;28;20037;-89
2023/06/19 05:33:24;;;;;;;5.40;4.65;;;;;;;15.48;49.43;95259.41;4975622;28;20608;-89
2023/06/19 05:35:52;;;;;;;8.35;4.20;;;;;;;16.54;47.51;95258.84;4991729;28;20072;-89
2023/06/19 05:38:18;;;;;;;5.40;4.38;;;;;;;16.70;46.53;95265.50;4967354;28;20038;-90
2023/06/19 05:40:43;;;;;;;4.55;4.00;;;;;;;17.41;45.07;95255.00;4992515;28;20065;-89
2023/06/19 05:43:09;;;;;;;5.30;4.28;;;;;;;16.79;46.75;95257.94;4952537;28;20125;-89
2023/06/19 05:45:34;;;;;;;7.40;4.55;;;;;;;16.46;47.32;95265.38;4971213;28;20154;-89
2023/06/19 05:48:00;;;;;;;5.45;4.20;;;;;;;17.89;44.02;95265.91;4969332;28;20030;-89
2023/06/19 05:50:25;;;;;;;5.35;4.30;;;;;;;18.36;42.72;95266.09;4971665;28;20438;-90
2023/06/19 05:52:51;;;;;;;5.07;4.13;;;;;;;18.41;42.55;95261.63;4987618;28;20501;-90
2023/06/19 05:55:16;;;;;;;4.28;3.88;;;;;;;18.01;43.58;95263.19;4993246;28;20042;-89
2023/06/19 05:57:42;;;;;;;8.38;4.32;;;;;;;18.35;42.84;95269.84;4956591;28;20034;-90
2023/06/19 06:00:13;;;;;;;6.55;3.88;;;;;;;18.18;43.60;95278.63;4972677;28;20037;-89
2023/06/19 06:02:39;;;;;;;5.68;4.32;;;;;;;18.23;43.30;95278.75;4969670;28;20232;-89
2023/06/19 06:05:05;;;;;;;4.53;4.07;;;;;;;18.30;43.07;95292.09;4975850;28;20054;-89
2023/06/19 06:07:31;;;;;;;6.07;4.38;;;;;;;17.96;44.37;95287.31;4968944;28;20038;-89
2023/06/19 06:09:56;;;;;;;5.47;4.00;;;;;;;18.20;44.13;95283.78;4985246;28;20045;-90
2023/06/19 06:12:22;;;;;;;7.93;4.10;;;;;;;17.66;45.29;95293.56;4948138;28;20585;-89
2023/06/19 06:14:47;;;;;;;8.77;4.68;;;;;;;17.48;45.60;95292.59;4949226;28;20049;-89
2023/06/19 06:17:12;;;;;;;6.45;4.57;;;;;;;17.26;46.04;95298.50;4969815;28;20048;-89
2023/06/19 06:19:38;;;;;;;5.07;4.40;;;;;;;18.07;44.02;95304.53;4999596;28;20030;-89
2023/06/19 06:22:07;;;;;;;7.78;4.72;;;;;;;16.83;47.02;95304.81;4952558;28;20049;-89
2023/06/19 06:24:33;;;;;;;5.70;4.50;;;;;;;17.64;45.46;95298.38;4970612;28;20034;-89
2023/06/19 06:26:58;;;;;;;5.43;4.32;;;;;;;18.41;43.49;95306.63;4972238;28;20048;-89
2023/06/19 06:29:24;;;;;;;6.22;4.53;;;;;;;17.92;45.08;95305.00;4972693;28;20231;-89
2023/06/19 06:31:52;;;;;;;6.05;4.30;;;;;;;18.11;44.86;95312.94;4954609;28;20049;-89
2023/06/19 06:34:19;;;;;;;5.25;4.40;;;;;;;17.81;45.40;95309.25;4985119;28;20045;-88
2023/06/19 06:36:44;;;;;;;5.53;4.07;;;;;;;17.22;46.20;95315.31;4951000;28;20120;-88
2023/06/19 06:39:10;;;;;;;6.78;4.57;;;;;;;16.90;47.80;95305.56;4953049;28;20584;-89
2023/06/19 06:41:36;;;;;;;6.85;4.50;;;;;;;16.71;47.71;95310.13;4966306;28;20529;-89
2023/06/19 06:44:01;;;;;;;6.47;4.60;;;;;;;16.93;47.93;95307.78;4980004;28;20041;-88
2023/06/19 06:46:26;;;;;;;6.57;4.70;;;;;;;17.10;47.53;95301.81;4953104;28;20050;-89
2023/06/19 06:48:52;;;;;;;8.57;4.90;;;;;;;17.39;46.86;95310.13;4953502;28;20037;-90
2023/06/19 06:51:17;;;;;;;6.40;4.50;;;;;;;17.08;47.25;95306.56;4995804;28;20055;-89
2023/06/19 06:53:43;;;;;;;7.65;4.80;;;;;;;17.34;47.02;95307.28;4966270;28;20034;-89
2023/06/19 06:56:08;;;;;;;6.20;5.07;;;;;;;17.53;46.56;95321.50;4975122;28;20022;-89
2023/06/19 06:58:34;;;;;;;7.57;4.68;;;;;;;17.97;45.63;95305.09;4975818;28;20627;-89
2023/06/19 07:00:59;;;;;;;7.80;5.45;;;;;;;17.90;45.49;95310.59;4973245;28;20056;-89
2023/06/19 07:03:25;;;;;;;5.18;4.40;;;;;;;17.81;46.54;95306.56;4971952;28;20067;-89
2023/06/19 07:05:50;;;;;;;8.90;4.88;;;;;;;18.22;45.43;95304.03;4992125;28;20045;-88
2023/06/19 07:08:16;;;;;;;7.70;5.15;;;;;;;17.95;46.11;95309.09;4963465;28;20033;-88
2023/06/19 07:10:41;;;;;;;8.27;5.00;;;;;;;18.03;45.52;95311.44;4965475;28;20557;-88
2023/06/19 07:13:07;;;;;;;6.85;5.15;;;;;;;18.56;43.84;95314.22;4986366;28;20140;-90
2023/06/19 07:15:32;;;;;;;6.50;4.75;;;;;;;18.36;44.06;95322.69;4985106;28;20414;-89
2023/06/19 07:17:57;;;;;;;5.47;4.78;;;;;;;17.92;45.84;95327.34;4965108;28;20422;-89
2023/06/19 07:20:23;;;;;;;7.40;4.57;;;;;;;17.85;46.03;95329.31;4992930;28;20114;-88
2023/06/19 07:22:50;;;;;;;6.32;4.65;;;;;;;18.27;45.20;95331.13;4983020;28;20053;-89
2023/06/19 07:25:16;;;;;;;7.75;4.75;;;;;;;18.13;45.30;95335.91;4972507;28;20039;-89
2023/06/19 07:27:41;;;;;;;6.90;5.20;;;;;;;18.26;45.85;95340.25;4971828;28;20038;-89
2023/06/19 07:30:07;;;;;;;6.65;4.63;;;;;;;18.39;44.82;95341.88;4959737;28;20124;-88
2023/06/19 07:32:32;;;;;;;6.97;4.88;;;;;;;17.67;47.36;95351.72;4968656;28;20042;-89
2023/06/19 07:34:58;;;;;;;11.02;5.00;;;;;;;18.20;45.46;95340.34;4967079;28;20030;-90
2023/06/19 07:37:23;;;;;;;6.63;4.68;;;;;;;17.99;46.81;95346.09;4950387;28;20088;-90
2023/06/19 07:39:52;;;;;;;6.90;4.32;;;;;;;17.24;48.17;95349.00;4991435;28;20033;-89
2023/06/19 07:42:18;;;;;;;9.80;5.10;;;;;;;17.35;47.85;95349.28;4975421;28;20029;-89
2023/06/19 07:44:43;;;;;;;5.68;4.50;;;;;;;18.01;46.17;95353.91;4956171;28;20054;-90
2023/06/19 07:47:09;;;;;;;6.38;4.80;;;;;;;18.07;46.30;95338.69;4959556;28;20018;-89
2023/06/19 07:49:35;;;;;;;6.97;4.50;;;;;;;18.02;45.96;95358.28;4971993;28;20041;-90
2023/06/19 07:52:00;;;;;;;7.65;4.68;;;;;;;18.37;45.11;95348.56;4977926;28;20034;-89
2023/06/19 07:54:26;;;;;;;6.70;5.05;;;;;;;18.50;44.76;95348.34;4972946;28;20112;-89
2023/06/19 07:56:51;;;;;;;7.65;5.28;;;;;;;17.57;47.05;95362.25;4981256;28;20430;-89
2023/06/19 07:59:17;;;;;;;6.20;4.72;;;;;;;18.15;45.87;95357.25;4978773;28;20200;-89
2023/06/19 08:01:43;;;;;;;6.93;5.00;;;;;;;18.79;44.12;95355.69;4978984;28;20034;-89
2023/06/19 08:04:08;;;;;;;5.97;4.55;;;;;;;18.53;45.21;95349.75;4973017;28;20065;-89
2023/06/19 08:06:34;;;;;;;6.55;4.32;;;;;;;18.15;45.66;95352.66;4951600;28;20039;-89
2023/06/19 08:08:59;;;;;;;5.10;3.60;;;;;;;17.62;47.13;95352.44;4945427;28;20042;-90
2023/06/19 08:11:24;;;;;;;6.30;4.57;;;;;;;18.29;45.72;95355.13;4959436;28;20034;-90
2023/06/19 08:13:50;;;;;;;5.35;4.38;;;;;;;18.07;45.78;95347.63;4961851;28;20250;-90
2023/06/19 08:16:15;;;;;;;6.25;4.43;;;;;;;17.86;46.40;95352.50;4970883;28;20101;-89
2023/06/19 08:18:42;;;;;;;7.28;5.03;;;;;;;17.78;47.07;95359.00;4970029;28;20030;-91
2023/06/19 08:21:07;;;;;;;6.60;4.07;;;;;;;18.13;46.24;95364.72;4982493;28;20050;-90
2023/06/19 08:23:32;;;;;;;4.68;4.07;;;;;;;18.45;45.48;95364.38;4965202;28;20046;-90
2023/06/19 08:25:58;;;;;;;7.80;4.55;;;;;;;18.53;44.91;95355.94;4972393;28;20390;-88
2023/06/19 08:28:23;;;;;;;6.03;4.30;;;;;;;18.43;45.32;95356.53;4971942;28;20384;-87
2023/06/19 08:30:49;;;;;;;5.25;4.10;;;;;;;17.99;46.51;95372.19;4964900;28;20282;-86
2023/06/19 08:33:14;;;;;;;4.88;4.00;;;;;;;17.61;46.46;95387.66;4972888;28;20057;-89
2023/06/19 08:35:40;;;;;;;7.75;4.40;;;;;;;18.40;44.91;95373.19;4951367;28;20046;-89
2023/06/19 08:38:05;;;;;;;6.40;3.75;;;;;;;17.91;45.55;95386.81;4976303;28;20026;-89
2023/06/19 08:40:31;;;;;;;4.15;3.50;;;;;;;18.17;44.82;95382.06;4983049;28;20042;-90
2023/06/19 08:42:56;;;;;;;4.30;3.67;;;;;;;18.28;44.19;95370.47;4970953;28;20057;-88
2023/06/19 08:45:22;;;;;;;5.13;3.70;;;;;;;18.53;43.43;95374.78;4949655;28;20053;-89
2023/06/19 08:47:48;;;;;;;4.80;3.65;;;;;;;18.87;41.88;95376.09;4989955;23;20100;-77
2023/06/19 08:50:15;;;;;;;4.47;3.45;;;;;;;19.16;41.69;95370.75;4968639;28;20033;-78
2023/06/19 08:52:41;;;;;;;6.37;3.67;;;;;;;19.30;40.24;95363.22;5005257;28;20145;-77
2023/06/19 08:55:06;;;;;;;3.70;3.08;;;;;;;19.73;39.15;95371.84;5004207;28;20289;-76
2023/06/19 08:57:37;;;;;;;5.43;3.38;;;;;;;19.87;39.25;95369.66;4986934;28;20052;-77
2023/06/19 09:00:05;;;;;;;3.60;3.20;;;;;;;20.22;38.01;95370.50;5004154;28;20099;-76
2023/06/19 09:02:41;;;;;;;5.43;3.38;;;;;;;20.73;36.67;95361.53;5006064;28;20026;-75
2023/06/19 09:05:17;;;;;;;8.05;3.50;;;;;;;20.66;37.03;95366.31;4987839;28;20713;-76
2023/06/19 09:07:43;;;;;;;3.42;2.88;;;;;;;20.84;37.12;95371.41;4987915;28;20699;-75
2023/06/19 09:10:16;;;;;;;4.38;3.22;;;;;;;20.68;37.58;95366.88;4984191;28;20037;-77
2023/06/19 09:13:02;;;;;;;4.10;3.20;;;;;;;20.46;37.85;95375.72;5007338;28;20516;-79
2023/06/19 09:15:30;;;;;;;3.40;3.05;;;;;;;21.13;37.44;95373.97;4987077;28;20064;-75
2023/06/19 09:18:05;;;;;;;6.63;3.25;;;;;;;20.51;37.63;95373.09;5003987;28;20018;-76
2023/06/19 09:20:32;;;;;;;3.85;3.08;;;;;;;21.09;36.30;95380.94;4986624;28;20041;-75
2023/06/19 09:23:00;;;;;;;4.20;3.03;;;;;;;21.00;36.39;95382.44;4969635;28;20087;-75
2023/06/19 09:25:26;;;;;;;4.45;3.05;;;;;;;21.53;35.72;95381.19;4980470;28;20038;-77
2023/06/19 09:27:55;;;;;;;3.13;2.83;;;;;;;21.79;34.57;95382.25;4986168;28;20609;-72
2023/06/19 09:30:20;;;;;;;3.65;2.80;;;;;;;21.92;34.74;95386.47;4985907;28;20418;-72
2023/06/19 09:32:46;;;;;;;5.80;3.10;;;;;;;22.54;34.17;95375.34;4967372;28;20038;-73
2023/06/19 09:35:11;;;;;;;3.38;3.08;;;;;;;22.74;33.53;95384.69;4984909;28;20506;-72
2023/06/19 09:37:38;;;;;;;5.32;3.10;;;;;;;22.66;32.44;95384.09;4998409;28;20034;-73
2023/06/19 09:40:10;;;;;;;3.17;2.87;;;;;;;22.46;33.32;95392.03;4961555;28;20164;-73
2023/06/19 09:42:41;;;;;;;4.03;2.80;;;;;;;22.52;33.27;95399.16;4968072;28;20403;-72
2023/06/19 09:45:15;;;;;;;3.63;2.95;;;;;;;22.51;33.27;95398.31;4968450;28;20314;-72
2023/06/19 09:47:47;;;;;;;4.03;3.08;;;;;;;21.13;35.73;95395.63;4989659;28;20052;-73
2023/06/19 09:50:15;;;;;;;3.88;3.00;;;;;;;20.90;35.73;95393.94;4967212;28;20030;-72
2023/06/19 09:52:42;;;;;;;3.78;2.80;;;;;;;21.90;33.94;95397.53;4968877;28;20125;-73
2023/06/19 09:55:09;;;;;;;5.15;3.03;;;;;;;22.53;33.75;95398.91;4952037;28;20033;-73
2023/06/19 09:57:34;;;;;;;3.35;2.80;;;;;;;21.92;33.95;95396.50;4983634;28;20041;-72
2023/06/19 10:00:11;;;;;;;3.45;3.00;;;;;;;22.12;33.02;95388.56;4982735;28;20025;-73
2023/06/19 10:02:36;;;;;;;4.13;3.37;;;;;;;21.98;33.65;95390.03;4954351;28;20033;-73
2023/06/19 10:05:02;;;;;;;3.95;2.83;;;;;;;22.04;34.86;95385.50;4967232;28;20049;-73
2023/06/19 10:07:33;;;;;;;3.10;2.63;;;;;;;22.26;33.02;95397.06;4966638;28;20617;-73
2023/06/19 10:10:06;;;;;;;2.95;2.60;;;;;;;22.68;32.82;95391.16;4999134;28;20262;-72
2023/06/19 10:12:45;;;;;;;4.50;2.63;;;;;;;22.25;32.93;95400.84;4950694;28;20034;-72
2023/06/19 10:15:20;;;;;;;3.95;2.80;;;;;;;21.79;33.62;95403.91;5000682;28;20105;-73
2023/06/19 10:17:51;;;;;;;3.65;2.90;;;;;;;21.38;34.90;95407.84;4998586;28;20394;-73
2023/06/19 10:20:33;;;;;;;10.52;3.00;;;;;;;21.40;34.00;95413.00;4960376;28;20120;-73
2023/06/19 10:23:18;;;;;;;6.22;2.88;;;;;;;22.27;33.48;95404.13;4980324;28;20551;-72
2023/06/19 10:26:02;;;;;;;3.85;2.80;;;;;;;22.02;33.30;95407.44;4998305;28;20109;-73
2023/06/19 10:28:32;;;;;;;8.13;3.20;;;;;;;22.32;32.25;95408.75;5016644;28;20038;-73
2023/06/19 10:31:04;;;;;;;3.20;2.83;;;;;;;20.68;34.78;95402.84;4985640;28;20038;-73
2023/06/19 10:33:32;;;;;;;2.88;2.50;;;;;;;22.96;32.53;95405.41;4983545;28;20041;-73
2023/06/19 10:35:57;;;;;;;5.75;2.88;;;;;;;22.35;32.78;95412.84;4982769;28;20104;-73
2023/06/19 10:38:23;;;;;;;3.80;2.70;;;;;;;23.19;32.50;95398.78;4969302;28;20041;-73
2023/06/19 10:40:48;;;;;;;3.28;2.50;;;;;;;23.22;31.23;95400.13;5001744;28;20026;-73
2023/06/19 10:43:22;;;;;;;3.92;2.63;;;;;;;23.29;31.21;95398.78;4983858;28;20041;-73
2023/06/19 10:45:48;;;;;;;5.85;2.70;;;;;;;22.81;32.47;95392.59;4998193;28;20049;-72
2023/06/19 10:48:18;;;;;;;5.90;3.00;;;;;;;20.87;34.51;95389.03;4996569;28;20065;-73
2023/06/19 10:50:43;;;;;;;5.60;2.78;;;;;;;22.87;31.67;95397.78;4997417;28;20621;-72
2023/06/19 10:53:09;;;;;;;4.53;2.70;;;;;;;22.62;31.75;95385.69;4968529;28;20041;-73
2023/06/19 10:55:34;;;;;;;3.85;2.50;;;;;;;23.29;30.19;95379.78;5001177;28;20054;-73
2023/06/19 10:58:00;;;;;;;4.75;2.53;;;;;;;23.34;30.25;95380.88;4952792;28;20042;-72
2023/06/19 11:00:30;;;;;;;6.32;2.80;;;;;;;24.02;29.83;95376.44;4965385;28;20042;-73
2023/06/19 11:02:56;;;;;;;3.08;2.70;;;;;;;24.80;28.45;95381.84;4983256;28;20033;-73
2023/06/19 11:05:22;;;;;;;5.13;2.87;;;;;;;23.81;29.38;95381.84;5015462;28;20046;-73
2023/06/19 11:07:57;;;;;;;2.53;2.30;;;;;;;24.75;28.86;95376.41;4983686;28;20042;-73
2023/06/19 11:10:24;;;;;;;3.72;2.60;;;;;;;24.89;27.58;95380.19;4963892;28;20038;-73
2023/06/19 11:12:53;;;;;;;4.32;2.47;;;;;;;24.32;27.88;95393.84;4982560;28;20040;-73
2023/06/19 11:15:19;;;;;;;4.05;2.70;;;;;;;24.18;28.69;95382.72;5009069;28;20038;-73
2023/06/19 11:17:44;;;;;;;6.53;2.60;;;;;;;25.29;27.32;95377.59;4991384;28;20125;-73
2023/06/19 11:20:13;;;;;;;3.60;2.40;;;;;;;25.00;27.44;95375.56;4979898;28;20034;-73
2023/06/19 11:22:40;;;;;;;6.00;2.55;;;;;;;23.53;29.63;95378.53;4977753;28;20029;-73
2023/06/19 11:25:06;;;;;;;3.25;2.50;;;;;;;25.24;26.79;95384.97;4962443;28;20046;-73
2023/06/19 11:27:32;;;;;;;3.38;2.20;;;;;;;24.48;27.96;95380.25;5004565;28;20587;-73
2023/06/19 11:30:00;;;;;;;2.87;2.57;;;;;;;25.72;26.50;95377.16;4948683;28;20049;-73
2023/06/19 11:32:41;;;;;;;3.05;2.30;;;;;;;25.55;26.85;95373.97;4977379;28;20784;-74